JAL3530 RJSS-RJFF
Flight info
| Callsign | JAL3530 |
|---|---|
| Flight time | 1h 44m |
| Altitude | 36000 |
| Route | GTC Y142 SAMON Y14 STOUT Y20 KIRIN |
| Aircraft | E190/M-SDE3GILORVW/S |
Departure
| Time | 2026-05-05 01:59 |
|---|---|
| Airport | Sendai Airport (RJSS) |
Arrival
| Time | 2026-05-05 03:43 |
|---|---|
| Airport | Fukuoka Airport (RJFF) |
| Time | Latitude | Longitude | Altitude | Speed | Heading |
|---|---|---|---|---|---|
| 2026-05-05 01:44 | 38.13914 | 140.93172 | 14 ft | 0 kts | 172° |
| 2026-05-05 01:54 | 38.13932 | 140.93169 | 15 ft | 3 kts | 172° |
| 2026-05-05 01:54 | 38.13950 | 140.93165 | 14 ft | 3 kts | 172° |
| 2026-05-05 01:54 | 38.13968 | 140.93162 | 15 ft | 3 kts | 172° |
| 2026-05-05 01:54 | 38.13987 | 140.93159 | 15 ft | 3 kts | 172° |
| 2026-05-05 01:55 | 38.14005 | 140.93157 | 15 ft | 3 kts | 157° |
| 2026-05-05 01:55 | 38.14018 | 140.93143 | 14 ft | 3 kts | 91° |
| 2026-05-05 01:55 | 38.14018 | 140.93130 | 14 ft | 0 kts | 52° |
| 2026-05-05 01:57 | 38.14021 | 140.93135 | 14 ft | 1 kts | 52° |
| 2026-05-05 01:57 | 38.14034 | 140.93155 | 17 ft | 5 kts | 52° |
| 2026-05-05 01:57 | 38.14054 | 140.93221 | 14 ft | 10 kts | 74° |
| 2026-05-05 01:57 | 38.14100 | 140.93278 | 14 ft | 10 kts | 13° |
| 2026-05-05 01:58 | 38.14169 | 140.93271 | 15 ft | 10 kts | 343° |
| 2026-05-05 01:58 | 38.14218 | 140.93216 | 19 ft | 10 kts | 286° |
| 2026-05-05 01:58 | 38.14211 | 140.93095 | 16 ft | 32 kts | 262° |
| 2026-05-05 01:58 | 38.14145 | 140.92476 | 20 ft | 108 kts | 263° |
| 2026-05-05 01:59 | 38.14016 | 140.91229 | 26 ft | 174 kts | 261° |
| 2026-05-05 01:59 | 38.13869 | 140.89590 | 672 ft | 191 kts | 263° |
| 2026-05-05 01:59 | 38.13708 | 140.87902 | 1721 ft | 200 kts | 265° |
| 2026-05-05 01:59 | 38.13561 | 140.86024 | 2440 ft | 230 kts | 266° |
| 2026-05-05 02:00 | 38.13351 | 140.83903 | 3293 ft | 253 kts | 260° |
| 2026-05-05 02:00 | 38.12536 | 140.81829 | 3921 ft | 269 kts | 236° |
| 2026-05-05 02:00 | 38.11414 | 140.79950 | 4952 ft | 264 kts | 236° |
| 2026-05-05 02:00 | 38.10293 | 140.78116 | 5833 ft | 263 kts | 236° |
| 2026-05-05 02:01 | 38.09159 | 140.76283 | 6616 ft | 265 kts | 236° |
| 2026-05-05 02:01 | 38.08032 | 140.74415 | 7274 ft | 268 kts | 238° |
| 2026-05-05 02:01 | 38.06889 | 140.72521 | 7927 ft | 273 kts | 237° |
| 2026-05-05 02:01 | 38.05705 | 140.70611 | 8569 ft | 277 kts | 237° |
| 2026-05-05 02:02 | 38.04511 | 140.68675 | 9253 ft | 280 kts | 238° |
| 2026-05-05 02:02 | 38.03308 | 140.66708 | 9969 ft | 283 kts | 239° |
| 2026-05-05 02:02 | 38.02144 | 140.64803 | 10432 ft | 295 kts | 239° |
| 2026-05-05 02:02 | 38.01015 | 140.62599 | 10847 ft | 300 kts | 253° |
| 2026-05-05 02:03 | 38.00616 | 140.60055 | 11467 ft | 294 kts | 273° |
| 2026-05-05 02:03 | 38.00579 | 140.58337 | 11979 ft | 295 kts | 274° |
| 2026-05-05 02:03 | 38.00508 | 140.55725 | 12791 ft | 298 kts | 274° |
| 2026-05-05 02:03 | 38.00450 | 140.53086 | 13588 ft | 301 kts | 274° |
| 2026-05-05 02:04 | 38.00400 | 140.50424 | 14480 ft | 303 kts | 275° |
| 2026-05-05 02:04 | 38.00363 | 140.47739 | 15369 ft | 305 kts | 275° |
| 2026-05-05 02:04 | 38.00336 | 140.45043 | 16261 ft | 306 kts | 274° |
| 2026-05-05 02:04 | 38.00260 | 140.42328 | 17048 ft | 310 kts | 273° |
| 2026-05-05 02:05 | 38.00176 | 140.39583 | 17797 ft | 314 kts | 273° |
| 2026-05-05 02:05 | 38.00094 | 140.36809 | 18592 ft | 316 kts | 272° |
| 2026-05-05 02:05 | 38.00008 | 140.34007 | 19282 ft | 319 kts | 272° |
| 2026-05-05 02:05 | 37.99925 | 140.31178 | 19969 ft | 322 kts | 272° |
| 2026-05-05 02:06 | 37.99840 | 140.28328 | 20624 ft | 325 kts | 272° |
| 2026-05-05 02:06 | 37.99759 | 140.25450 | 21265 ft | 327 kts | 272° |
| 2026-05-05 02:06 | 37.99671 | 140.22564 | 21900 ft | 329 kts | 272° |
| 2026-05-05 02:06 | 37.99582 | 140.19650 | 22483 ft | 332 kts | 272° |
| 2026-05-05 02:07 | 37.99491 | 140.16714 | 23034 ft | 335 kts | 272° |
| 2026-05-05 02:07 | 37.99400 | 140.13744 | 23564 ft | 339 kts | 271° |
| 2026-05-05 02:07 | 37.99307 | 140.10746 | 24091 ft | 341 kts | 271° |
| 2026-05-05 02:07 | 37.99211 | 140.07739 | 24645 ft | 342 kts | 271° |
| 2026-05-05 02:08 | 37.99117 | 140.04727 | 25213 ft | 342 kts | 270° |
| 2026-05-05 02:08 | 37.99021 | 140.01713 | 25769 ft | 343 kts | 270° |
| 2026-05-05 02:08 | 37.98924 | 139.98691 | 26282 ft | 344 kts | 270° |
| 2026-05-05 02:08 | 37.98826 | 139.95656 | 26808 ft | 345 kts | 270° |
| 2026-05-05 02:09 | 37.98728 | 139.92655 | 27243 ft | 348 kts | 269° |
| 2026-05-05 02:09 | 37.98626 | 139.89541 | 27668 ft | 349 kts | 269° |
| 2026-05-05 02:09 | 37.98526 | 139.86465 | 28172 ft | 350 kts | 269° |
| 2026-05-05 02:09 | 37.98423 | 139.83380 | 28588 ft | 351 kts | 269° |
| 2026-05-05 02:10 | 37.98319 | 139.80283 | 29049 ft | 352 kts | 268° |
| 2026-05-05 02:10 | 37.98214 | 139.77166 | 29414 ft | 355 kts | 268° |
| 2026-05-05 02:10 | 37.98112 | 139.74079 | 29797 ft | 356 kts | 268° |
| 2026-05-05 02:10 | 37.98003 | 139.70938 | 30222 ft | 358 kts | 268° |
| 2026-05-05 02:11 | 37.97894 | 139.67780 | 30531 ft | 359 kts | 268° |
| 2026-05-05 02:11 | 37.97785 | 139.64631 | 30902 ft | 358 kts | 268° |
| 2026-05-05 02:11 | 37.97674 | 139.61469 | 31185 ft | 360 kts | 268° |
| 2026-05-05 02:11 | 37.97562 | 139.58285 | 31432 ft | 362 kts | 267° |
| 2026-05-05 02:12 | 37.97445 | 139.55096 | 31665 ft | 363 kts | 267° |
| 2026-05-05 02:12 | 37.97221 | 139.48711 | 32223 ft | 364 kts | 266° |
| 2026-05-05 02:12 | 37.97105 | 139.45501 | 32515 ft | 364 kts | 266° |
| 2026-05-05 02:13 | 37.96989 | 139.42309 | 32898 ft | 363 kts | 266° |
| 2026-05-05 02:13 | 37.96872 | 139.39114 | 33117 ft | 363 kts | 266° |
| 2026-05-05 02:13 | 37.96753 | 139.35927 | 33498 ft | 361 kts | 266° |
| 2026-05-05 02:13 | 37.96638 | 139.32765 | 33855 ft | 358 kts | 266° |
| 2026-05-05 02:14 | 37.96523 | 139.29619 | 34175 ft | 356 kts | 266° |
| 2026-05-05 02:14 | 37.96405 | 139.26484 | 34406 ft | 356 kts | 266° |
| 2026-05-05 02:14 | 37.96287 | 139.23355 | 34612 ft | 355 kts | 266° |
| 2026-05-05 02:14 | 37.96168 | 139.20231 | 34808 ft | 355 kts | 265° |
| 2026-05-05 02:15 | 37.96048 | 139.17112 | 35003 ft | 354 kts | 265° |
| 2026-05-05 02:15 | 37.95928 | 139.13997 | 35192 ft | 353 kts | 264° |
| 2026-05-05 02:15 | 37.95451 | 139.10954 | 35340 ft | 354 kts | 252° |
| 2026-05-05 02:15 | 37.94526 | 139.08067 | 35530 ft | 353 kts | 249° |
| 2026-05-05 02:16 | 37.93561 | 139.05203 | 35697 ft | 354 kts | 249° |
| 2026-05-05 02:16 | 37.92592 | 139.02342 | 35882 ft | 353 kts | 249° |
| 2026-05-05 02:16 | 37.91621 | 138.99486 | 36068 ft | 353 kts | 249° |
| 2026-05-05 02:17 | 37.89654 | 138.93745 | 36143 ft | 359 kts | 249° |
| 2026-05-05 02:17 | 37.87637 | 138.87889 | 36168 ft | 367 kts | 249° |
| 2026-05-05 02:18 | 37.85574 | 138.81925 | 36184 ft | 373 kts | 248° |
| 2026-05-05 02:18 | 37.83470 | 138.75861 | 36213 ft | 379 kts | 248° |
| 2026-05-05 02:19 | 37.81391 | 138.69893 | 36180 ft | 354 kts | 248° |
| 2026-05-05 02:19 | 37.79430 | 138.64271 | 36232 ft | 352 kts | 248° |
| 2026-05-05 02:20 | 37.77431 | 138.58544 | 36248 ft | 360 kts | 248° |
| 2026-05-05 02:20 | 37.75385 | 138.52701 | 36280 ft | 367 kts | 248° |
| 2026-05-05 02:21 | 37.73298 | 138.46750 | 36245 ft | 373 kts | 248° |
| 2026-05-05 02:21 | 37.71185 | 138.40743 | 36221 ft | 375 kts | 248° |
| 2026-05-05 02:22 | 37.69057 | 138.34717 | 36214 ft | 376 kts | 248° |
| 2026-05-05 02:22 | 37.66920 | 138.28685 | 36216 ft | 377 kts | 248° |
| 2026-05-05 02:23 | 37.64778 | 138.22649 | 36216 ft | 377 kts | 248° |
| 2026-05-05 02:23 | 37.62630 | 138.16610 | 36206 ft | 377 kts | 248° |
| 2026-05-05 02:24 | 37.60484 | 138.10580 | 36205 ft | 377 kts | 248° |
| 2026-05-05 02:24 | 37.58323 | 138.04529 | 36218 ft | 379 kts | 248° |
| 2026-05-05 02:25 | 37.56156 | 137.98467 | 36218 ft | 379 kts | 248° |
| 2026-05-05 02:25 | 37.53985 | 137.92406 | 36215 ft | 380 kts | 248° |
| 2026-05-05 02:26 | 37.51808 | 137.86345 | 36214 ft | 379 kts | 248° |
| 2026-05-05 02:26 | 37.49631 | 137.80292 | 36206 ft | 380 kts | 248° |
| 2026-05-05 02:27 | 37.47465 | 137.74285 | 36214 ft | 379 kts | 248° |
| 2026-05-05 02:27 | 37.45281 | 137.68238 | 36215 ft | 379 kts | 248° |
| 2026-05-05 02:28 | 37.43096 | 137.62196 | 36223 ft | 380 kts | 248° |
| 2026-05-05 02:28 | 37.40905 | 137.56151 | 36225 ft | 379 kts | 248° |
| 2026-05-05 02:29 | 37.38712 | 137.50110 | 36193 ft | 380 kts | 248° |
| 2026-05-05 02:29 | 37.36516 | 137.44073 | 36198 ft | 380 kts | 248° |
| 2026-05-05 02:30 | 37.34316 | 137.38037 | 36230 ft | 380 kts | 247° |
| 2026-05-05 02:30 | 37.32110 | 137.31994 | 36210 ft | 380 kts | 247° |
| 2026-05-05 02:31 | 37.29903 | 137.25954 | 36191 ft | 381 kts | 247° |
| 2026-05-05 02:31 | 37.27695 | 137.19917 | 36219 ft | 380 kts | 247° |
| 2026-05-05 02:32 | 37.25485 | 137.13884 | 36201 ft | 381 kts | 247° |
| 2026-05-05 02:32 | 37.23268 | 137.07850 | 36216 ft | 381 kts | 247° |
| 2026-05-05 02:33 | 37.21048 | 137.01819 | 36214 ft | 381 kts | 247° |
| 2026-05-05 02:33 | 37.18825 | 136.95793 | 36209 ft | 381 kts | 247° |
| 2026-05-05 02:34 | 37.16602 | 136.89764 | 36206 ft | 381 kts | 247° |
| 2026-05-05 02:34 | 37.14375 | 136.83734 | 36206 ft | 382 kts | 247° |
| 2026-05-05 02:35 | 37.12134 | 136.77714 | 36226 ft | 382 kts | 247° |
| 2026-05-05 02:35 | 37.09896 | 136.71697 | 36215 ft | 381 kts | 247° |
| 2026-05-05 02:36 | 37.07622 | 136.65688 | 36220 ft | 382 kts | 246° |
| 2026-05-05 02:36 | 37.05351 | 136.59677 | 36216 ft | 382 kts | 246° |
| 2026-05-05 02:37 | 37.03086 | 136.53664 | 36218 ft | 382 kts | 246° |
| 2026-05-05 02:37 | 37.00821 | 136.47649 | 36208 ft | 382 kts | 246° |
| 2026-05-05 02:38 | 36.98554 | 136.41635 | 36214 ft | 382 kts | 246° |
| 2026-05-05 02:38 | 36.96284 | 136.35621 | 36213 ft | 382 kts | 246° |
| 2026-05-05 02:39 | 36.94014 | 136.29611 | 36212 ft | 382 kts | 246° |
| 2026-05-05 02:39 | 36.91738 | 136.23599 | 36236 ft | 382 kts | 246° |
| 2026-05-05 02:40 | 36.89472 | 136.17622 | 36202 ft | 383 kts | 246° |
| 2026-05-05 02:40 | 36.87187 | 136.11608 | 36205 ft | 383 kts | 246° |
| 2026-05-05 02:41 | 36.84900 | 136.05596 | 36218 ft | 383 kts | 246° |
| 2026-05-05 02:41 | 36.82609 | 135.99589 | 36211 ft | 383 kts | 246° |
| 2026-05-05 02:42 | 36.80316 | 135.93587 | 36209 ft | 383 kts | 246° |
| 2026-05-05 02:42 | 36.78021 | 135.87587 | 36217 ft | 383 kts | 246° |
| 2026-05-05 02:43 | 36.75724 | 135.81592 | 36214 ft | 383 kts | 246° |
| 2026-05-05 02:43 | 36.73421 | 135.75587 | 36231 ft | 384 kts | 246° |
| 2026-05-05 02:44 | 36.71110 | 135.69577 | 36205 ft | 385 kts | 246° |
| 2026-05-05 02:44 | 36.68798 | 135.63569 | 36224 ft | 384 kts | 246° |
| 2026-05-05 02:45 | 36.66486 | 135.57563 | 36207 ft | 385 kts | 246° |
| 2026-05-05 02:45 | 36.64161 | 135.51546 | 36203 ft | 386 kts | 246° |
| 2026-05-05 02:46 | 36.61834 | 135.45529 | 36222 ft | 386 kts | 246° |
| 2026-05-05 02:46 | 36.59502 | 135.39515 | 36236 ft | 385 kts | 246° |
| 2026-05-05 02:47 | 36.57170 | 135.33501 | 36207 ft | 386 kts | 246° |
| 2026-05-05 02:47 | 36.54834 | 135.27491 | 36190 ft | 387 kts | 246° |
| 2026-05-05 02:48 | 36.52885 | 135.22497 | 36229 ft | 385 kts | 246° |
| 2026-05-05 02:48 | 36.50541 | 135.16492 | 36196 ft | 386 kts | 246° |
| 2026-05-05 02:49 | 36.48196 | 135.10492 | 36174 ft | 387 kts | 245° |
| 2026-05-05 02:49 | 36.45852 | 135.04506 | 36241 ft | 385 kts | 245° |
| 2026-05-05 02:50 | 36.43504 | 134.98521 | 36229 ft | 384 kts | 245° |
| 2026-05-05 02:50 | 36.41155 | 134.92543 | 36170 ft | 386 kts | 245° |
| 2026-05-05 02:51 | 36.38800 | 134.86577 | 36231 ft | 385 kts | 245° |
| 2026-05-05 02:51 | 36.36440 | 134.80604 | 36247 ft | 384 kts | 245° |
| 2026-05-05 02:52 | 36.34078 | 134.74632 | 36186 ft | 386 kts | 245° |
| 2026-05-05 02:52 | 36.31714 | 134.68665 | 36201 ft | 387 kts | 245° |
| 2026-05-05 02:53 | 36.29346 | 134.62692 | 36235 ft | 386 kts | 245° |
| 2026-05-05 02:53 | 36.26971 | 134.56720 | 36205 ft | 386 kts | 245° |
| 2026-05-05 02:54 | 36.24588 | 134.50753 | 36203 ft | 387 kts | 242° |
| 2026-05-05 02:54 | 36.21758 | 134.45068 | 36213 ft | 388 kts | 240° |
| 2026-05-05 02:55 | 36.18910 | 134.39390 | 36213 ft | 388 kts | 240° |
| 2026-05-05 02:55 | 36.16073 | 134.33713 | 36214 ft | 388 kts | 240° |
| 2026-05-05 02:56 | 36.13240 | 134.28031 | 36221 ft | 387 kts | 240° |
| 2026-05-05 02:56 | 36.10411 | 134.22355 | 36200 ft | 388 kts | 240° |
| 2026-05-05 02:57 | 36.07580 | 134.16681 | 36206 ft | 388 kts | 240° |
| 2026-05-05 02:57 | 36.04749 | 134.11010 | 36214 ft | 387 kts | 240° |
| 2026-05-05 02:58 | 36.01914 | 134.05338 | 36206 ft | 388 kts | 240° |
| 2026-05-05 02:58 | 35.99073 | 133.99664 | 36202 ft | 388 kts | 240° |
| 2026-05-05 02:59 | 35.96229 | 133.93991 | 36207 ft | 388 kts | 240° |
| 2026-05-05 02:59 | 35.93377 | 133.88331 | 36206 ft | 388 kts | 240° |
| 2026-05-05 03:00 | 35.90523 | 133.82677 | 36204 ft | 388 kts | 240° |
| 2026-05-05 03:00 | 35.87668 | 133.77032 | 36206 ft | 388 kts | 240° |
| 2026-05-05 03:01 | 35.84812 | 133.71389 | 36215 ft | 387 kts | 240° |
| 2026-05-05 03:01 | 35.81975 | 133.65797 | 36190 ft | 388 kts | 240° |
| 2026-05-05 03:02 | 35.79110 | 133.60159 | 36208 ft | 390 kts | 240° |
| 2026-05-05 03:02 | 35.76231 | 133.54499 | 36193 ft | 390 kts | 240° |
| 2026-05-05 03:03 | 35.73366 | 133.48880 | 36213 ft | 385 kts | 240° |
| 2026-05-05 03:03 | 35.70508 | 133.43280 | 36176 ft | 387 kts | 240° |
| 2026-05-05 03:04 | 35.67639 | 133.37668 | 36172 ft | 389 kts | 240° |
| 2026-05-05 03:04 | 35.64764 | 133.32054 | 36209 ft | 386 kts | 240° |
| 2026-05-05 03:05 | 35.61895 | 133.26462 | 36200 ft | 386 kts | 240° |
| 2026-05-05 03:05 | 35.59018 | 133.20864 | 36141 ft | 389 kts | 240° |
| 2026-05-05 03:06 | 35.56135 | 133.15259 | 36155 ft | 388 kts | 240° |
| 2026-05-05 03:06 | 35.53274 | 133.09714 | 36211 ft | 384 kts | 237° |
| 2026-05-05 03:07 | 35.50015 | 133.04467 | 36162 ft | 387 kts | 236° |
| 2026-05-05 03:07 | 35.46729 | 132.99212 | 36166 ft | 389 kts | 235° |
| 2026-05-05 03:08 | 35.43439 | 132.93964 | 36122 ft | 387 kts | 235° |
| 2026-05-05 03:08 | 35.40165 | 132.88751 | 36163 ft | 387 kts | 235° |
| 2026-05-05 03:09 | 35.36883 | 132.83529 | 36166 ft | 386 kts | 235° |
| 2026-05-05 03:09 | 35.33598 | 132.78314 | 36162 ft | 384 kts | 236° |
| 2026-05-05 03:10 | 35.30338 | 132.73139 | 36172 ft | 384 kts | 235° |
| 2026-05-05 03:10 | 35.27070 | 132.67968 | 36172 ft | 384 kts | 235° |
| 2026-05-05 03:11 | 35.23790 | 132.62800 | 36177 ft | 385 kts | 235° |
| 2026-05-05 03:11 | 35.20526 | 132.57706 | 36362 ft | 376 kts | 234° |
| 2026-05-05 03:11 | 35.18907 | 132.55161 | 36142 ft | 379 kts | 236° |
| 2026-05-05 03:12 | 35.17300 | 132.52604 | 36116 ft | 381 kts | 236° |
| 2026-05-05 03:12 | 35.14053 | 132.47502 | 36226 ft | 380 kts | 235° |
| 2026-05-05 03:13 | 35.10815 | 132.42394 | 36193 ft | 377 kts | 235° |
| 2026-05-05 03:13 | 35.07596 | 132.37312 | 36191 ft | 379 kts | 235° |
| 2026-05-05 03:14 | 35.04354 | 132.32225 | 36187 ft | 380 kts | 235° |
| 2026-05-05 03:14 | 35.01101 | 132.27123 | 36110 ft | 382 kts | 236° |
| 2026-05-05 03:14 | 34.99525 | 132.24640 | 36221 ft | 369 kts | 235° |
| 2026-05-05 03:15 | 34.97917 | 132.22141 | 36245 ft | 369 kts | 235° |
| 2026-05-05 03:15 | 34.94722 | 132.17167 | 36187 ft | 374 kts | 234° |
| 2026-05-05 03:16 | 34.91514 | 132.12197 | 36182 ft | 378 kts | 235° |
| 2026-05-05 03:16 | 34.88267 | 132.07130 | 36209 ft | 380 kts | 235° |
| 2026-05-05 03:17 | 34.85020 | 132.02038 | 36167 ft | 380 kts | 235° |
| 2026-05-05 03:17 | 34.81745 | 131.96961 | 36132 ft | 384 kts | 235° |
| 2026-05-05 03:18 | 34.78434 | 131.91876 | 36161 ft | 384 kts | 235° |
| 2026-05-05 03:18 | 34.76787 | 131.89350 | 35724 ft | 376 kts | 235° |
| 2026-05-05 03:18 | 34.75195 | 131.86918 | 35570 ft | 361 kts | 234° |
| 2026-05-05 03:18 | 34.73642 | 131.84548 | 34954 ft | 357 kts | 235° |
| 2026-05-05 03:19 | 34.70629 | 131.79922 | 34044 ft | 343 kts | 235° |
| 2026-05-05 03:19 | 34.69164 | 131.77679 | 33627 ft | 335 kts | 235° |
| 2026-05-05 03:19 | 34.67722 | 131.75465 | 33141 ft | 335 kts | 234° |
| 2026-05-05 03:20 | 34.66269 | 131.73241 | 32740 ft | 338 kts | 235° |
| 2026-05-05 03:20 | 34.64807 | 131.71000 | 32320 ft | 340 kts | 234° |
| 2026-05-05 03:20 | 34.63327 | 131.68733 | 31842 ft | 345 kts | 234° |
| 2026-05-05 03:20 | 34.61824 | 131.66437 | 31399 ft | 350 kts | 234° |
| 2026-05-05 03:21 | 34.60298 | 131.64104 | 30917 ft | 355 kts | 234° |
| 2026-05-05 03:21 | 34.58751 | 131.61749 | 30451 ft | 360 kts | 234° |
| 2026-05-05 03:21 | 34.57099 | 131.59458 | 30182 ft | 363 kts | 231° |
| 2026-05-05 03:21 | 34.55516 | 131.57015 | 29372 ft | 366 kts | 235° |
| 2026-05-05 03:22 | 34.53952 | 131.54601 | 28950 ft | 368 kts | 234° |
| 2026-05-05 03:22 | 34.52380 | 131.52161 | 28533 ft | 366 kts | 234° |
| 2026-05-05 03:22 | 34.50797 | 131.49720 | 27990 ft | 370 kts | 234° |
| 2026-05-05 03:22 | 34.49207 | 131.47277 | 27554 ft | 369 kts | 234° |
| 2026-05-05 03:23 | 34.47613 | 131.44841 | 27024 ft | 369 kts | 234° |
| 2026-05-05 03:23 | 34.46022 | 131.42413 | 26554 ft | 367 kts | 233° |
| 2026-05-05 03:23 | 34.44439 | 131.40001 | 26062 ft | 365 kts | 234° |
| 2026-05-05 03:23 | 34.42866 | 131.37603 | 25578 ft | 363 kts | 233° |
| 2026-05-05 03:24 | 34.41304 | 131.35226 | 25112 ft | 358 kts | 234° |
| 2026-05-05 03:24 | 34.39757 | 131.32872 | 24618 ft | 357 kts | 233° |
| 2026-05-05 03:24 | 34.38210 | 131.30523 | 24156 ft | 356 kts | 233° |
| 2026-05-05 03:24 | 34.36668 | 131.28185 | 23752 ft | 354 kts | 233° |
| 2026-05-05 03:25 | 34.35129 | 131.25853 | 23188 ft | 354 kts | 233° |
| 2026-05-05 03:25 | 34.33593 | 131.23538 | 22755 ft | 352 kts | 233° |
| 2026-05-05 03:25 | 34.32053 | 131.21231 | 22255 ft | 351 kts | 233° |
| 2026-05-05 03:25 | 34.30537 | 131.18932 | 21808 ft | 350 kts | 233° |
| 2026-05-05 03:26 | 34.29016 | 131.16637 | 21347 ft | 348 kts | 232° |
| 2026-05-05 03:26 | 34.27504 | 131.14350 | 20881 ft | 348 kts | 233° |
| 2026-05-05 03:26 | 34.26014 | 131.12091 | 20428 ft | 348 kts | 232° |
| 2026-05-05 03:26 | 34.24511 | 131.09804 | 19940 ft | 347 kts | 232° |
| 2026-05-05 03:27 | 34.23006 | 131.07537 | 19514 ft | 346 kts | 232° |
| 2026-05-05 03:27 | 34.21502 | 131.05269 | 19034 ft | 345 kts | 232° |
| 2026-05-05 03:27 | 34.20002 | 131.03012 | 18568 ft | 344 kts | 231° |
| 2026-05-05 03:27 | 34.18721 | 131.00583 | 18113 ft | 342 kts | 244° |
| 2026-05-05 03:28 | 34.17771 | 130.97967 | 17674 ft | 340 kts | 247° |
| 2026-05-05 03:28 | 34.16848 | 130.95347 | 17153 ft | 339 kts | 246° |
| 2026-05-05 03:28 | 34.15920 | 130.92724 | 16591 ft | 337 kts | 246° |
| 2026-05-05 03:28 | 34.14990 | 130.90111 | 16160 ft | 333 kts | 246° |
| 2026-05-05 03:29 | 34.14077 | 130.87547 | 15718 ft | 331 kts | 246° |
| 2026-05-05 03:29 | 34.13170 | 130.85009 | 15293 ft | 329 kts | 246° |
| 2026-05-05 03:29 | 34.12252 | 130.82525 | 14846 ft | 327 kts | 241° |
| 2026-05-05 03:29 | 34.11018 | 130.80213 | 14422 ft | 320 kts | 234° |
| 2026-05-05 03:30 | 34.09746 | 130.78037 | 13994 ft | 315 kts | 234° |
| 2026-05-05 03:30 | 34.08924 | 130.76615 | 13697 ft | 311 kts | 234° |
| 2026-05-05 03:30 | 34.07462 | 130.74099 | 13238 ft | 302 kts | 234° |
| 2026-05-05 03:30 | 34.06670 | 130.72731 | 12965 ft | 299 kts | 234° |
| 2026-05-05 03:31 | 34.05490 | 130.70697 | 12568 ft | 294 kts | 234° |
| 2026-05-05 03:31 | 34.04326 | 130.68691 | 12182 ft | 290 kts | 234° |
| 2026-05-05 03:31 | 34.03178 | 130.66714 | 11793 ft | 286 kts | 234° |
| 2026-05-05 03:31 | 34.02043 | 130.64759 | 11416 ft | 283 kts | 234° |
| 2026-05-05 03:32 | 34.00920 | 130.62824 | 11046 ft | 280 kts | 234° |
| 2026-05-05 03:32 | 33.99805 | 130.60903 | 10481 ft | 284 kts | 234° |
| 2026-05-05 03:32 | 33.98654 | 130.58927 | 9468 ft | 290 kts | 233° |
| 2026-05-05 03:32 | 33.97414 | 130.56990 | 8388 ft | 293 kts | 230° |
| 2026-05-05 03:33 | 33.96135 | 130.55087 | 7674 ft | 285 kts | 230° |
| 2026-05-05 03:33 | 33.94938 | 130.53293 | 7337 ft | 266 kts | 230° |
| 2026-05-05 03:33 | 33.93791 | 130.51562 | 7045 ft | 263 kts | 230° |
| 2026-05-05 03:33 | 33.92655 | 130.49837 | 6721 ft | 262 kts | 230° |
| 2026-05-05 03:34 | 33.91527 | 130.48122 | 6357 ft | 260 kts | 230° |
| 2026-05-05 03:34 | 33.90418 | 130.46423 | 6027 ft | 257 kts | 230° |
| 2026-05-05 03:34 | 33.89319 | 130.44742 | 5686 ft | 254 kts | 230° |
| 2026-05-05 03:34 | 33.88226 | 130.43075 | 5346 ft | 252 kts | 230° |
| 2026-05-05 03:35 | 33.87172 | 130.41468 | 4979 ft | 238 kts | 229° |
| 2026-05-05 03:35 | 33.86176 | 130.39949 | 4661 ft | 225 kts | 229° |
| 2026-05-05 03:35 | 33.85221 | 130.38500 | 4435 ft | 217 kts | 229° |
| 2026-05-05 03:35 | 33.84307 | 130.37108 | 4186 ft | 208 kts | 229° |
| 2026-05-05 03:36 | 33.83430 | 130.35779 | 3847 ft | 204 kts | 230° |
| 2026-05-05 03:36 | 33.82563 | 130.34465 | 3602 ft | 197 kts | 230° |
| 2026-05-05 03:36 | 33.81722 | 130.33191 | 3328 ft | 192 kts | 230° |
| 2026-05-05 03:36 | 33.80814 | 130.32055 | 3091 ft | 185 kts | 213° |
| 2026-05-05 03:37 | 33.79648 | 130.31495 | 2865 ft | 180 kts | 187° |
| 2026-05-05 03:37 | 33.78456 | 130.31510 | 3060 ft | 164 kts | 167° |
| 2026-05-05 03:37 | 33.77466 | 130.32066 | 3887 ft | 150 kts | 149° |
| 2026-05-05 03:37 | 33.76559 | 130.32741 | 4201 ft | 168 kts | 153° |
| 2026-05-05 03:38 | 33.75469 | 130.33440 | 3723 ft | 183 kts | 153° |
| 2026-05-05 03:38 | 33.74367 | 130.34199 | 3376 ft | 181 kts | 150° |
| 2026-05-05 03:38 | 33.73300 | 130.34951 | 3089 ft | 174 kts | 151° |
| 2026-05-05 03:38 | 33.72277 | 130.35649 | 2845 ft | 164 kts | 152° |
| 2026-05-05 03:39 | 33.71312 | 130.36312 | 2618 ft | 156 kts | 151° |
| 2026-05-05 03:39 | 33.70407 | 130.36939 | 2401 ft | 144 kts | 151° |
| 2026-05-05 03:39 | 33.69555 | 130.37526 | 2217 ft | 138 kts | 151° |
| 2026-05-05 03:39 | 33.68715 | 130.38104 | 2054 ft | 141 kts | 153° |
| 2026-05-05 03:40 | 33.67855 | 130.38696 | 1863 ft | 143 kts | 152° |
| 2026-05-05 03:40 | 33.67013 | 130.39262 | 1640 ft | 135 kts | 150° |
| 2026-05-05 03:40 | 33.66250 | 130.39807 | 1438 ft | 122 kts | 153° |
| 2026-05-05 03:40 | 33.65504 | 130.40309 | 1125 ft | 122 kts | 153° |
| 2026-05-05 03:41 | 33.64786 | 130.40803 | 894 ft | 117 kts | 151° |
| 2026-05-05 03:41 | 33.64081 | 130.41301 | 665 ft | 119 kts | 152° |
| 2026-05-05 03:41 | 33.63330 | 130.41802 | 597 ft | 124 kts | 151° |
| 2026-05-05 03:41 | 33.62582 | 130.42317 | 549 ft | 124 kts | 152° |
| 2026-05-05 03:42 | 33.61818 | 130.42830 | 544 ft | 125 kts | 152° |
| 2026-05-05 03:42 | 33.61054 | 130.43348 | 389 ft | 128 kts | 151° |
| 2026-05-05 03:42 | 33.60291 | 130.43888 | 244 ft | 126 kts | 149° |
| 2026-05-05 03:42 | 33.59549 | 130.44413 | 61 ft | 121 kts | 151° |
| 2026-05-05 03:43 | 33.58898 | 130.44859 | 31 ft | 87 kts | 150° |
| 2026-05-05 03:43 | 33.58496 | 130.45133 | 34 ft | 57 kts | 150° |
| 2026-05-05 03:43 | 33.58172 | 130.45262 | 36 ft | 44 kts | 182° |
| 2026-05-05 03:43 | 33.57979 | 130.45127 | 35 ft | 31 kts | 288° |
| 2026-05-05 03:44 | 33.58123 | 130.44997 | 36 ft | 22 kts | 329° |
| 2026-05-05 03:44 | 33.58253 | 130.44910 | 34 ft | 20 kts | 332° |
| 2026-05-05 03:44 | 33.58370 | 130.44830 | 36 ft | 17 kts | 331° |
| 2026-05-05 03:44 | 33.58456 | 130.44743 | 36 ft | 16 kts | 294° |
| 2026-05-05 03:45 | 33.58456 | 130.44632 | 34 ft | 14 kts | 236° |
| 2026-05-05 03:45 | 33.58439 | 130.44597 | 34 ft | 2 kts | 240° |
| 2026-05-05 03:45 | 33.58436 | 130.44591 | 34 ft | 0 kts | 240° |